Time;durP1;ratioP1;P1;durP2;ratioP2;P2;SDS_P1;SDS_P2;PMS_P1;PMS_P2;Temp;Humidity;BMP_temperature;BMP_pressure;BME280_temperature;BME280_humidity;BME280_pressure;Samples;Min_cycle;Max_cycle;Signal;HPM_P1;HPM_P2
2023/11/14 00:01:39;;;;;;;5.03;2.15;;;;;;;;;;6314403;22;20176;-81
2023/11/14 00:04:08;;;;;;;7.15;2.17;;;;;;;;;;6314672;22;20616;-83
2023/11/14 00:06:35;;;;;;;5.93;2.40;;;;;;;;;;6314830;22;20729;-83
2023/11/14 00:09:03;;;;;;;7.10;2.15;;;;;;;;;;6315655;22;20199;-83
2023/11/14 00:11:34;;;;;;;4.75;2.10;;;;;;;;;;6315148;22;20178;-84
2023/11/14 00:14:03;;;;;;;5.35;2.10;;;;;;;;;;6315582;22;20171;-83
2023/11/14 00:16:31;;;;;;;6.18;2.33;;;;;;;;;;6313983;22;20202;-83
2023/11/14 00:18:59;;;;;;;3.65;2.10;;;;;;;;;;6314349;22;20176;-84
2023/11/14 00:21:27;;;;;;;3.42;1.40;;;;;;;;;;6314396;22;20225;-83
2023/11/14 00:23:55;;;;;;;2.38;1.30;;;;;;;;;;6314897;22;20180;-84
2023/11/14 00:26:23;;;;;;;4.10;1.83;;;;;;;;;;6314930;22;20627;-84
2023/11/14 00:28:51;;;;;;;7.95;2.25;;;;;;;;;;6315367;22;20171;-84
2023/11/14 00:31:19;;;;;;;3.38;1.80;;;;;;;;;;6314372;22;20195;-84
2023/11/14 00:33:47;;;;;;;5.75;2.15;;;;;;;;;;6314435;22;20206;-84
2023/11/14 00:36:14;;;;;;;1.98;1.40;;;;;;;;;;6315208;22;20191;-83
2023/11/14 00:38:43;;;;;;;7.35;2.03;;;;;;;;;;6314333;22;20211;-83
2023/11/14 00:41:11;;;;;;;2.38;1.20;;;;;;;;;;6314998;22;20242;-82
2023/11/14 00:43:38;;;;;;;4.05;1.92;;;;;;;;;;6314790;22;20168;-83
2023/11/14 00:46:12;;;;;;;4.05;1.58;;;;;;;;;;6314487;22;20262;-83
2023/11/14 00:48:39;;;;;;;4.07;1.55;;;;;;;;;;6313672;22;20156;-82
2023/11/14 00:51:07;;;;;;;4.03;1.70;;;;;;;;;;6315306;22;20261;-82
2023/11/14 00:53:35;;;;;;;4.97;1.48;;;;;;;;;;6315722;22;20203;-82
2023/11/14 00:56:04;;;;;;;4.32;1.58;;;;;;;;;;6314266;22;20195;-82
2023/11/14 00:58:32;;;;;;;5.85;1.80;;;;;;;;;;6314120;22;20557;-85
2023/11/14 01:00:59;;;;;;;7.78;2.33;;;;;;;;;;6315422;22;20196;-83
2023/11/14 01:03:27;;;;;;;6.28;2.70;;;;;;;;;;6316610;22;20172;-83
2023/11/14 01:05:55;;;;;;;4.82;1.83;;;;;;;;;;6316226;22;20207;-84
2023/11/14 01:08:22;;;;;;;3.20;1.90;;;;;;;;;;6316605;22;20175;-84
2023/11/14 01:10:50;;;;;;;6.63;2.17;;;;;;;;;;6315749;22;20199;-83
2023/11/14 01:13:19;;;;;;;5.28;2.60;;;;;;;;;;6317436;22;20175;-84
2023/11/14 01:15:47;;;;;;;5.07;3.03;;;;;;;;;;6315375;22;20511;-83
2023/11/14 01:18:15;;;;;;;3.80;2.30;;;;;;;;;;6315271;22;20187;-83
2023/11/14 01:20:43;;;;;;;3.75;2.30;;;;;;;;;;6316161;22;20241;-83
2023/11/14 01:23:10;;;;;;;5.72;2.30;;;;;;;;;;6316114;22;20202;-82
2023/11/14 01:25:39;;;;;;;5.28;1.83;;;;;;;;;;6315760;22;20205;-81
2023/11/14 01:28:06;;;;;;;5.65;2.10;;;;;;;;;;6316129;22;20172;-82
2023/11/14 01:30:35;;;;;;;4.72;1.85;;;;;;;;;;6316164;22;20207;-84
2023/11/14 01:33:03;;;;;;;2.97;1.90;;;;;;;;;;6316849;22;20274;-83
2023/11/14 01:35:30;;;;;;;4.90;1.70;;;;;;;;;;6314490;22;20179;-84
2023/11/14 01:37:58;;;;;;;3.78;1.60;;;;;;;;;;6315100;22;20616;-83
2023/11/14 01:40:26;;;;;;;4.95;2.00;;;;;;;;;;6314289;22;20203;-83
2023/11/14 01:42:54;;;;;;;7.60;2.65;;;;;;;;;;6315028;22;20195;-83
2023/11/14 01:45:21;;;;;;;4.80;1.42;;;;;;;;;;6315353;22;20178;-84
2023/11/14 01:47:50;;;;;;;3.33;1.75;;;;;;;;;;6315714;22;20175;-84
2023/11/14 01:50:19;;;;;;;6.63;2.85;;;;;;;;;;6314229;22;20291;-82
2023/11/14 01:52:47;;;;;;;6.03;2.13;;;;;;;;;;6315998;22;20183;-82
2023/11/14 01:55:14;;;;;;;10.65;2.20;;;;;;;;;;6314059;22;20176;-83
2023/11/14 01:57:42;;;;;;;5.88;2.35;;;;;;;;;;6314549;22;20515;-83
2023/11/14 02:00:12;;;;;;;6.22;2.03;;;;;;;;;;6316616;22;20234;-83
2023/11/14 02:02:40;;;;;;;5.10;1.83;;;;;;;;;;6317142;22;20207;-83
2023/11/14 02:05:10;;;;;;;6.15;2.03;;;;;;;;;;6316391;22;20200;-83
2023/11/14 02:07:38;;;;;;;3.25;1.45;;;;;;;;;;6316851;22;20255;-84
2023/11/14 02:10:06;;;;;;;4.47;2.13;;;;;;;;;;6317655;22;20231;-84
2023/11/14 02:12:34;;;;;;;4.20;1.30;;;;;;;;;;6317194;22;20605;-83
2023/11/14 02:15:04;;;;;;;6.30;1.83;;;;;;;;;;6316753;22;20649;-84
2023/11/14 02:17:32;;;;;;;2.67;2.25;;;;;;;;;;6317475;22;20214;-84
2023/11/14 02:20:00;;;;;;;6.47;2.22;;;;;;;;;;6314873;22;20679;-84
2023/11/14 02:22:29;;;;;;;2.83;1.58;;;;;;;;;;6318506;22;20183;-83
2023/11/14 02:24:58;;;;;;;7.95;2.25;;;;;;;;;;6317404;22;20168;-83
2023/11/14 02:27:26;;;;;;;8.35;2.20;;;;;;;;;;6318490;22;20207;-83
2023/11/14 02:29:54;;;;;;;5.13;1.90;;;;;;;;;;6317426;22;20270;-84
2023/11/14 02:32:22;;;;;;;5.18;2.30;;;;;;;;;;6317512;22;20199;-82
2023/11/14 02:34:50;;;;;;;5.28;2.38;;;;;;;;;;6320126;22;20184;-82
2023/11/14 02:37:18;;;;;;;7.07;1.75;;;;;;;;;;6318480;22;20203;-84
2023/11/14 02:39:45;;;;;;;5.70;2.10;;;;;;;;;;6318803;22;20202;-83
2023/11/14 02:42:14;;;;;;;4.63;1.60;;;;;;;;;;6320485;22;20509;-82
2023/11/14 02:44:42;;;;;;;5.85;1.50;;;;;;;;;;6321139;22;20285;-82
2023/11/14 02:47:09;;;;;;;4.70;2.10;;;;;;;;;;6319212;22;20172;-83
2023/11/14 02:49:57;;;;;;;4.10;1.73;;;;;;;;;;6316579;22;20196;-84
2023/11/14 02:52:25;;;;;;;3.83;2.00;;;;;;;;;;6316920;22;20180;-82
2023/11/14 02:54:53;;;;;;;8.30;2.97;;;;;;;;;;6315607;22;20179;-82
2023/11/14 02:57:22;;;;;;;6.20;2.22;;;;;;;;;;6316423;22;20671;-83
2023/11/14 02:59:49;;;;;;;3.78;1.75;;;;;;;;;;6316260;22;20571;-83
2023/11/14 03:02:18;;;;;;;3.22;1.73;;;;;;;;;;6315809;22;20203;-83
2023/11/14 03:04:45;;;;;;;2.05;1.88;;;;;;;;;;6316263;22;20228;-83
2023/11/14 03:07:13;;;;;;;3.67;1.80;;;;;;;;;;6315188;22;20210;-84
2023/11/14 03:09:41;;;;;;;6.28;2.00;;;;;;;;;;6314756;22;20215;-82
2023/11/14 03:12:09;;;;;;;4.60;1.95;;;;;;;;;;6316239;22;20188;-83
2023/11/14 03:14:38;;;;;;;5.03;2.58;;;;;;;;;;6315228;22;20241;-83
2023/11/14 03:17:06;;;;;;;7.38;3.63;;;;;;;;;;6315507;22;20229;-83
2023/11/14 03:19:33;;;;;;;5.18;2.40;;;;;;;;;;6317513;22;20206;-83
2023/11/14 03:22:01;;;;;;;4.50;2.05;;;;;;;;;;6316022;22;20172;-84
2023/11/14 03:24:28;;;;;;;4.72;2.53;;;;;;;;;;6314424;22;20199;-83
2023/11/14 03:26:56;;;;;;;4.03;1.80;;;;;;;;;;6317302;22;20499;-83
2023/11/14 03:29:23;;;;;;;6.43;2.30;;;;;;;;;;6315307;22;20203;-82
2023/11/14 03:31:52;;;;;;;2.78;2.00;;;;;;;;;;6315634;22;20200;-83
2023/11/14 03:34:20;;;;;;;3.42;1.75;;;;;;;;;;6314732;22;20259;-83
2023/11/14 03:36:52;;;;;;;5.65;2.40;;;;;;;;;;6315684;22;20533;-84
2023/11/14 03:39:19;;;;;;;6.25;2.13;;;;;;;;;;6316687;22;20607;-83
2023/11/14 03:41:47;;;;;;;4.85;2.05;;;;;;;;;;6316039;22;20218;-83
2023/11/14 03:44:14;;;;;;;5.68;2.33;;;;;;;;;;6314238;22;20645;-83
2023/11/14 03:46:42;;;;;;;6.80;2.17;;;;;;;;;;6313971;22;20187;-83
2023/11/14 03:49:12;;;;;;;5.00;2.13;;;;;;;;;;6314959;22;20682;-84
2023/11/14 03:51:39;;;;;;;5.18;2.00;;;;;;;;;;6314587;22;20198;-83
2023/11/14 03:54:07;;;;;;;12.38;2.78;;;;;;;;;;6310507;22;20198;-83
2023/11/14 03:56:35;;;;;;;6.68;2.10;;;;;;;;;;6306791;22;20505;-83
2023/11/14 03:59:02;;;;;;;6.25;1.80;;;;;;;;;;6306803;22;20217;-82
2023/11/14 04:01:30;;;;;;;4.00;1.92;;;;;;;;;;6307415;22;20679;-83
2023/11/14 04:03:57;;;;;;;6.13;2.15;;;;;;;;;;6307467;22;20207;-83
2023/11/14 04:06:26;;;;;;;5.13;2.60;;;;;;;;;;6307887;22;20196;-83
2023/11/14 04:08:54;;;;;;;6.60;2.20;;;;;;;;;;6307609;22;20218;-84
2023/11/14 04:11:21;;;;;;;8.18;3.15;;;;;;;;;;6307103;22;20648;-83
2023/11/14 04:13:49;;;;;;;5.38;2.38;;;;;;;;;;6306963;22;20191;-83
2023/11/14 04:16:17;;;;;;;8.52;2.42;;;;;;;;;;6307892;22;20241;-83
2023/11/14 04:18:45;;;;;;;5.18;2.60;;;;;;;;;;6307324;22;20251;-83
2023/11/14 04:21:18;;;;;;;5.43;2.13;;;;;;;;;;6307578;22;20752;-83
2023/11/14 04:23:47;;;;;;;2.25;1.30;;;;;;;;;;6307386;22;20160;-82
2023/11/14 04:26:15;;;;;;;5.78;1.65;;;;;;;;;;6308664;22;20251;-82
2023/11/14 04:28:43;;;;;;;4.45;2.05;;;;;;;;;;6309124;22;20577;-83
2023/11/14 04:31:11;;;;;;;3.60;2.03;;;;;;;;;;6307117;22;20278;-82
2023/11/14 04:33:38;;;;;;;4.90;3.00;;;;;;;;;;6308689;22;20210;-83
2023/11/14 04:36:09;;;;;;;4.93;1.60;;;;;;;;;;6309057;22;20230;-82
2023/11/14 04:38:38;;;;;;;5.00;1.95;;;;;;;;;;6308702;22;20163;-83
2023/11/14 04:41:07;;;;;;;4.63;2.10;;;;;;;;;;6309438;22;20226;-83
2023/11/14 04:43:34;;;;;;;3.35;2.03;;;;;;;;;;6309292;22;20167;-82
2023/11/14 04:46:02;;;;;;;6.28;2.40;;;;;;;;;;6309706;22;20648;-82
2023/11/14 04:48:29;;;;;;;8.88;2.58;;;;;;;;;;6309292;22;20210;-82
2023/11/14 04:50:57;;;;;;;5.30;2.13;;;;;;;;;;6308115;22;20223;-82
2023/11/14 04:53:25;;;;;;;4.57;2.58;;;;;;;;;;6309297;22;20202;-84
2023/11/14 04:55:52;;;;;;;5.43;2.17;;;;;;;;;;6310004;22;20668;-84
2023/11/14 04:58:21;;;;;;;7.68;3.15;;;;;;;;;;6310352;22;20647;-83
2023/11/14 05:00:50;;;;;;;6.47;2.08;;;;;;;;;;6311674;22;20568;-82
2023/11/14 05:03:18;;;;;;;8.13;3.05;;;;;;;;;;6311365;22;20667;-82
2023/11/14 05:05:45;;;;;;;7.00;2.70;;;;;;;;;;6311558;22;20250;-83
2023/11/14 05:08:13;;;;;;;5.85;2.03;;;;;;;;;;6311177;22;20668;-83
2023/11/14 05:10:41;;;;;;;10.48;2.55;;;;;;;;;;6311750;22;20586;-81
2023/11/14 05:13:08;;;;;;;7.10;3.75;;;;;;;;;;6311174;22;20520;-82
2023/11/14 05:15:37;;;;;;;4.53;2.03;;;;;;;;;;6311975;22;20187;-82
2023/11/14 05:18:05;;;;;;;5.05;2.10;;;;;;;;;;6311891;22;20184;-82
2023/11/14 05:20:33;;;;;;;5.45;2.85;;;;;;;;;;6311889;22;20218;-83
2023/11/14 05:23:00;;;;;;;6.22;2.70;;;;;;;;;;6311070;22;20239;-84
2023/11/14 05:25:28;;;;;;;6.45;2.28;;;;;;;;;;6311234;22;20199;-84
2023/11/14 05:27:56;;;;;;;6.50;2.35;;;;;;;;;;6311200;22;20588;-83
2023/11/14 05:30:25;;;;;;;4.35;1.98;;;;;;;;;;6311326;22;20211;-83
2023/11/14 05:32:54;;;;;;;4.68;1.75;;;;;;;;;;6312471;22;20520;-84
2023/11/14 05:35:21;;;;;;;10.05;2.92;;;;;;;;;;6312978;22;20207;-84
2023/11/14 05:37:49;;;;;;;3.55;1.73;;;;;;;;;;6312853;22;20848;-84
2023/11/14 05:40:16;;;;;;;6.00;2.33;;;;;;;;;;6313941;22;20215;-84
2023/11/14 05:42:44;;;;;;;4.40;1.92;;;;;;;;;;6313474;22;20176;-82
2023/11/14 05:45:13;;;;;;;3.92;1.88;;;;;;;;;;6314561;22;20575;-83
2023/11/14 05:47:40;;;;;;;5.22;2.75;;;;;;;;;;6315665;22;20559;-83
2023/11/14 05:50:10;;;;;;;4.28;1.80;;;;;;;;;;6313690;22;20274;-83
2023/11/14 05:52:38;;;;;;;2.95;1.77;;;;;;;;;;6314829;22;20234;-83
2023/11/14 05:55:07;;;;;;;3.70;1.73;;;;;;;;;;6314840;22;20554;-81
2023/11/14 05:57:34;;;;;;;7.45;2.10;;;;;;;;;;6313497;22;20199;-82
2023/11/14 06:00:02;;;;;;;6.80;1.95;;;;;;;;;;6313842;22;20227;-82
2023/11/14 06:02:30;;;;;;;5.18;2.20;;;;;;;;;;6313117;22;20171;-82
2023/11/14 06:04:57;;;;;;;4.20;2.58;;;;;;;;;;6314071;22;20175;-83
2023/11/14 06:07:26;;;;;;;4.00;2.40;;;;;;;;;;6313314;22;20258;-83
2023/11/14 06:09:54;;;;;;;9.60;2.78;;;;;;;;;;6313614;22;20594;-83
2023/11/14 06:12:21;;;;;;;6.63;1.90;;;;;;;;;;6313787;22;20227;-83
2023/11/14 06:14:49;;;;;;;4.88;1.80;;;;;;;;;;6314029;22;20633;-83
2023/11/14 06:17:16;;;;;;;8.23;2.60;;;;;;;;;;6312620;22;20207;-82
2023/11/14 06:19:44;;;;;;;5.05;2.42;;;;;;;;;;6312176;22;20687;-81
2023/11/14 06:22:11;;;;;;;5.68;2.50;;;;;;;;;;6312873;22;20210;-83
2023/11/14 06:24:40;;;;;;;5.57;2.80;;;;;;;;;;6311646;22;20199;-83
2023/11/14 06:27:08;;;;;;;6.88;2.35;;;;;;;;;;6312352;22;20267;-82
2023/11/14 06:29:35;;;;;;;6.80;3.00;;;;;;;;;;6312861;22;20531;-82
2023/11/14 06:32:03;;;;;;;4.88;2.42;;;;;;;;;;6312790;22;20175;-81
2023/11/14 06:34:31;;;;;;;5.88;2.30;;;;;;;;;;6313526;22;20195;-82
2023/11/14 06:36:58;;;;;;;8.48;2.80;;;;;;;;;;6313972;22;20176;-82
2023/11/14 06:39:26;;;;;;;11.43;3.70;;;;;;;;;;6313608;22;20199;-81
2023/11/14 06:41:55;;;;;;;6.85;2.67;;;;;;;;;;6312189;22;20172;-83
2023/11/14 06:44:23;;;;;;;3.08;1.80;;;;;;;;;;6313165;22;20512;-83
2023/11/14 06:46:50;;;;;;;4.82;2.13;;;;;;;;;;6312748;22;20250;-83
2023/11/14 06:49:18;;;;;;;4.22;2.17;;;;;;;;;;6312470;22;20521;-83
2023/11/14 06:51:45;;;;;;;3.35;2.10;;;;;;;;;;6312665;22;20210;-84
2023/11/14 06:54:13;;;;;;;3.80;2.40;;;;;;;;;;6312983;22;20226;-84
2023/11/14 06:56:40;;;;;;;5.80;3.00;;;;;;;;;;6313193;22;20168;-82
2023/11/14 06:59:09;;;;;;;13.35;3.28;;;;;;;;;;6314024;22;20203;-81
2023/11/14 07:01:37;;;;;;;5.78;2.35;;;;;;;;;;6313492;22;20175;-82
2023/11/14 07:04:05;;;;;;;7.95;2.97;;;;;;;;;;6313421;22;20238;-82
2023/11/14 07:06:33;;;;;;;3.53;2.13;;;;;;;;;;6313739;22;20178;-82
2023/11/14 07:09:01;;;;;;;6.97;2.75;;;;;;;;;;6282392;22;20214;-81
2023/11/14 07:11:29;;;;;;;4.72;2.08;;;;;;;;;;6282892;22;20196;-81
2023/11/14 07:13:56;;;;;;;4.60;1.90;;;;;;;;;;6282525;22;20196;-81
2023/11/14 07:16:27;;;;;;;4.55;2.03;;;;;;;;;;6282602;22;20176;-82
2023/11/14 07:18:54;;;;;;;6.65;2.00;;;;;;;;;;6282687;22;20172;-83
2023/11/14 07:21:22;;;;;;;4.78;2.67;;;;;;;;;;6282461;22;20743;-83
2023/11/14 07:23:49;;;;;;;8.27;2.05;;;;;;;;;;6281148;22;20200;-83
2023/11/14 07:26:17;;;;;;;8.13;2.33;;;;;;;;;;6281715;22;20262;-84
2023/11/14 07:28:44;;;;;;;2.65;1.35;;;;;;;;;;6281776;22;20207;-83
2023/11/14 07:31:12;;;;;;;2.78;1.40;;;;;;;;;;6282448;22;20200;-83
2023/11/14 07:33:41;;;;;;;7.55;2.45;;;;;;;;;;6281735;22;20226;-83
2023/11/14 07:36:09;;;;;;;6.90;2.63;;;;;;;;;;6282509;22;20652;-81
2023/11/14 07:38:36;;;;;;;3.75;1.52;;;;;;;;;;6281658;22;20210;-82
2023/11/14 07:41:07;;;;;;;5.40;1.85;;;;;;;;;;6281968;22;20689;-82
2023/11/14 07:43:34;;;;;;;4.22;2.22;;;;;;;;;;6282534;22;20234;-82
2023/11/14 07:46:03;;;;;;;5.95;2.42;;;;;;;;;;6283648;22;20625;-82
2023/11/14 07:48:31;;;;;;;4.82;2.63;;;;;;;;;;6285746;22;20180;-83
2023/11/14 07:51:00;;;;;;;3.50;2.00;;;;;;;;;;6285508;22;20252;-82
2023/11/14 07:53:28;;;;;;;7.65;2.22;;;;;;;;;;6284621;22;20204;-82
2023/11/14 07:55:56;;;;;;;5.10;2.13;;;;;;;;;;6283428;22;20199;-83
2023/11/14 07:58:25;;;;;;;3.55;1.80;;;;;;;;;;6283990;22;20200;-85
2023/11/14 08:00:53;;;;;;;6.55;1.77;;;;;;;;;;6285760;22;20192;-83
2023/11/14 08:03:20;;;;;;;6.57;2.50;;;;;;;;;;6285207;22;20180;-83
2023/11/14 08:05:48;;;;;;;5.93;1.88;;;;;;;;;;6283328;22;20629;-84
2023/11/14 08:08:17;;;;;;;4.03;2.58;;;;;;;;;;6304987;22;20210;-84
2023/11/14 08:10:45;;;;;;;5.75;2.40;;;;;;;;;;6314385;22;20261;-83
2023/11/14 08:13:12;;;;;;;4.85;2.10;;;;;;;;;;6314110;22;20196;-82
2023/11/14 08:15:40;;;;;;;3.67;2.00;;;;;;;;;;6314092;22;20210;-85
2023/11/14 08:18:07;;;;;;;6.28;1.75;;;;;;;;;;6314802;22;20175;-82
2023/11/14 08:20:35;;;;;;;4.97;2.10;;;;;;;;;;6316905;22;20219;-82
2023/11/14 08:23:03;;;;;;;5.68;2.10;;;;;;;;;;6316502;22;20247;-82
2023/11/14 08:25:33;;;;;;;6.35;1.92;;;;;;;;;;6316063;22;20171;-83
2023/11/14 08:28:00;;;;;;;4.22;2.05;;;;;;;;;;6315825;22;20171;-84
2023/11/14 08:30:28;;;;;;;2.72;1.90;;;;;;;;;;6315453;22;20194;-83
2023/11/14 08:32:56;;;;;;;4.47;1.85;;;;;;;;;;6315898;22;20176;-84
2023/11/14 08:35:25;;;;;;;4.95;1.92;;;;;;;;;;6314442;22;20191;-84
2023/11/14 08:37:53;;;;;;;3.92;2.20;;;;;;;;;;6314745;22;20175;-82
2023/11/14 08:40:21;;;;;;;5.15;1.88;;;;;;;;;;6313732;22;20660;-82
2023/11/14 08:42:51;;;;;;;6.10;2.03;;;;;;;;;;6313632;22;20503;-82
2023/11/14 08:45:19;;;;;;;9.10;3.05;;;;;;;;;;6314118;22;20175;-84
2023/11/14 08:47:47;;;;;;;6.28;2.22;;;;;;;;;;6314445;22;20171;-83
2023/11/14 08:50:17;;;;;;;4.68;2.30;;;;;;;;;;6314689;22;20219;-82
2023/11/14 08:52:45;;;;;;;3.72;1.50;;;;;;;;;;6312490;22;20168;-82
2023/11/14 08:55:12;;;;;;;5.07;1.48;;;;;;;;;;6314661;22;20207;-83
2023/11/14 08:57:40;;;;;;;4.15;1.80;;;;;;;;;;6315291;22;20171;-83
2023/11/14 09:00:12;;;;;;;4.43;1.98;;;;;;;;;;6315852;22;20187;-82
2023/11/14 09:02:40;;;;;;;2.55;1.60;;;;;;;;;;6315559;22;20659;-83
2023/11/14 09:05:10;;;;;;;3.38;1.92;;;;;;;;;;6316210;22;20194;-83
2023/11/14 09:07:37;;;;;;;6.50;2.00;;;;;;;;;;6316114;22;20197;-82
2023/11/14 09:10:06;;;;;;;4.53;2.15;;;;;;;;;;6315251;22;20197;-84
2023/11/14 09:12:34;;;;;;;4.22;1.85;;;;;;;;;;6317024;22;20168;-83
2023/11/14 09:15:05;;;;;;;13.07;3.97;;;;;;;;;;6318205;22;20199;-84
2023/11/14 09:17:34;;;;;;;5.20;2.15;;;;;;;;;;6318267;22;20541;-84
2023/11/14 09:20:02;;;;;;;3.60;1.67;;;;;;;;;;6316365;22;20191;-83
2023/11/14 09:22:30;;;;;;;4.38;2.33;;;;;;;;;;6317464;22;20616;-84
2023/11/14 09:24:58;;;;;;;4.10;1.88;;;;;;;;;;6317777;22;20168;-84
2023/11/14 09:27:25;;;;;;;4.43;1.70;;;;;;;;;;6316872;22;20689;-84
2023/11/14 09:29:53;;;;;;;5.43;2.00;;;;;;;;;;6315751;22;20222;-83
2023/11/14 09:32:22;;;;;;;7.18;2.20;;;;;;;;;;6316789;22;20492;-82
2023/11/14 09:34:52;;;;;;;4.35;2.13;;;;;;;;;;6315582;22;20254;-83
2023/11/14 09:37:20;;;;;;;9.65;2.65;;;;;;;;;;6315836;22;20164;-83
2023/11/14 09:39:49;;;;;;;9.60;2.65;;;;;;;;;;6314538;22;20261;-82
2023/11/14 09:42:18;;;;;;;7.00;2.45;;;;;;;;;;6315579;22;20747;-82
2023/11/14 09:44:46;;;;;;;7.13;2.50;;;;;;;;;;6315022;22;20164;-83
2023/11/14 09:47:14;;;;;;;7.78;2.83;;;;;;;;;;6315254;22;20624;-83
2023/11/14 09:49:43;;;;;;;5.53;2.67;;;;;;;;;;6313829;22;20215;-82
2023/11/14 09:52:13;;;;;;;10.02;3.03;;;;;;;;;;6314515;22;20172;-82
2023/11/14 09:54:41;;;;;;;7.22;2.30;;;;;;;;;;6314212;22;20596;-82
2023/11/14 09:57:10;;;;;;;10.25;2.42;;;;;;;;;;6314869;22;20172;-83
2023/11/14 09:59:44;;;;;;;6.22;2.47;;;;;;;;;;6314908;22;20195;-83
2023/11/14 10:02:12;;;;;;;8.82;2.60;;;;;;;;;;6314577;22;20499;-83
2023/11/14 10:04:40;;;;;;;4.13;1.90;;;;;;;;;;6313450;22;20195;-83
2023/11/14 10:07:08;;;;;;;4.10;1.98;;;;;;;;;;6314722;22;20206;-84
2023/11/14 10:09:38;;;;;;;4.20;2.00;;;;;;;;;;6314504;22;20192;-84
2023/11/14 10:12:08;;;;;;;4.97;2.45;;;;;;;;;;6313908;22;20621;-83
2023/11/14 10:14:45;;;;;;;8.77;3.58;;;;;;;;;;6314540;22;20178;-83
2023/11/14 10:17:16;;;;;;;10.35;2.70;;;;;;;;;;6313880;22;20156;-83
2023/11/14 10:20:00;;;;;;;7.15;2.30;;;;;;;;;;6313633;22;20213;-84
2023/11/14 10:22:28;;;;;;;5.53;2.72;;;;;;;;;;6313308;22;20176;-84
2023/11/14 10:24:58;;;;;;;2.60;1.60;;;;;;;;;;6312922;22;20493;-83
2023/11/14 10:27:30;;;;;;;3.47;1.85;;;;;;;;;;6313986;22;20663;-83
2023/11/14 10:29:59;;;;;;;3.60;2.08;;;;;;;;;;6313953;22;20218;-83
2023/11/14 10:32:27;;;;;;;8.30;2.78;;;;;;;;;;6314791;22;20182;-84
2023/11/14 10:34:54;;;;;;;7.60;2.47;;;;;;;;;;6312918;22;20191;-84
2023/11/14 10:37:32;;;;;;;5.78;2.30;;;;;;;;;;6313888;22;20621;-85
2023/11/14 10:40:06;;;;;;;6.32;2.17;;;;;;;;;;6313612;22;20271;-83
2023/11/14 10:42:34;;;;;;;4.60;2.13;;;;;;;;;;6314160;22;20194;-83
2023/11/14 10:45:04;;;;;;;5.10;2.08;;;;;;;;;;6312655;22;20168;-84
2023/11/14 10:47:40;;;;;;;3.80;2.42;;;;;;;;;;6313453;22;20597;-83
2023/11/14 10:50:25;;;;;;;12.63;4.35;;;;;;;;;;6314737;22;20197;-82
2023/11/14 10:52:54;;;;;;;4.88;1.80;;;;;;;;;;6314255;22;20608;-83
2023/11/14 10:55:24;;;;;;;3.88;1.42;;;;;;;;;;6313213;22;20228;-83
2023/11/14 10:57:54;;;;;;;2.65;1.52;;;;;;;;;;6314875;22;20161;-83
2023/11/14 11:00:22;;;;;;;4.07;1.90;;;;;;;;;;6313408;22;20230;-83
2023/11/14 11:02:52;;;;;;;6.78;3.97;;;;;;;;;;6313971;22;20207;-84
2023/11/14 11:05:21;;;;;;;6.60;2.10;;;;;;;;;;6313438;22;20518;-83
2023/11/14 11:07:49;;;;;;;4.03;1.80;;;;;;;;;;6313831;22;20183;-83
2023/11/14 11:10:17;;;;;;;5.38;1.90;;;;;;;;;;6314653;22;20230;-83
2023/11/14 11:12:47;;;;;;;6.53;1.75;;;;;;;;;;6314150;22;20178;-82
2023/11/14 11:15:15;;;;;;;7.07;1.60;;;;;;;;;;6315273;22;20167;-83
2023/11/14 11:17:45;;;;;;;4.13;1.65;;;;;;;;;;6314665;22;20182;-84
2023/11/14 11:20:25;;;;;;;3.30;2.13;;;;;;;;;;6314895;22;20191;-83
2023/11/14 11:23:08;;;;;;;5.78;2.97;;;;;;;;;;6314939;22;20186;-83
2023/11/14 11:25:36;;;;;;;4.57;2.03;;;;;;;;;;6314091;22;20190;-83
2023/11/14 11:28:35;;;;;;;3.10;1.60;;;;;;;;;;6313723;22;20194;-83
2023/11/14 11:31:15;;;;;;;6.43;2.10;;;;;;;;;;6312980;22;20188;-82
2023/11/14 11:33:44;;;;;;;3.05;1.80;;;;;;;;;;6312591;22;20543;-83
2023/11/14 11:36:42;;;;;;;3.85;1.52;;;;;;;;;;6313760;22;20191;-84
2023/11/14 11:39:10;;;;;;;4.70;1.75;;;;;;;;;;6187562;23;20244;-84
2023/11/14 11:41:56;;;;;;;2.75;1.20;;;;;;;;;;6284202;22;20180;-83
2023/11/14 11:44:37;;;;;;;3.00;1.48;;;;;;;;;;6314345;22;20656;-82
2023/11/14 11:47:05;;;;;;;2.03;1.50;;;;;;;;;;6312977;22;20613;-83
2023/11/14 11:49:33;;;;;;;2.25;1.25;;;;;;;;;;6315309;22;20188;-83
2023/11/14 11:52:17;;;;;;;4.40;1.90;;;;;;;;;;6313456;22;20167;-85
2023/11/14 11:54:48;;;;;;;5.20;1.30;;;;;;;;;;6313774;22;20168;-83
2023/11/14 11:57:22;;;;;;;1.85;1.13;;;;;;;;;;6313252;22;20191;-81
2023/11/14 12:00:22;;;;;;;3.58;1.50;;;;;;;;;;6312878;22;20196;-81
2023/11/14 12:02:51;;;;;;;6.63;2.78;;;;;;;;;;6312885;22;20168;-84
2023/11/14 12:05:19;;;;;;;5.82;1.92;;;;;;;;;;6313519;22;20180;-84
2023/11/14 12:07:48;;;;;;;2.65;1.30;;;;;;;;;;6312798;22;20232;-83
2023/11/14 12:10:18;;;;;;;1.52;1.20;;;;;;;;;;6313764;22;20672;-82
2023/11/14 12:12:47;;;;;;;2.15;1.52;;;;;;;;;;6314285;22;20182;-84
2023/11/14 12:15:17;;;;;;;4.93;1.98;;;;;;;;;;6312939;22;20612;-83
2023/11/14 12:18:05;;;;;;;3.60;1.80;;;;;;;;;;6313000;22;20525;-82
2023/11/14 12:20:33;;;;;;;3.33;1.88;;;;;;;;;;6314512;22;20196;-83
2023/11/14 12:23:01;;;;;;;3.15;1.85;;;;;;;;;;6314531;22;20195;-83
2023/11/14 12:25:28;;;;;;;3.17;1.63;;;;;;;;;;6313419;22;20175;-83
2023/11/14 12:28:01;;;;;;;3.92;1.70;;;;;;;;;;6313156;22;20210;-83
2023/11/14 12:30:29;;;;;;;3.17;1.40;;;;;;;;;;6314253;22;20199;-84
2023/11/14 12:33:06;;;;;;;2.70;1.50;;;;;;;;;;6312982;22;20639;-82
2023/11/14 12:35:57;;;;;;;3.83;1.92;;;;;;;;;;6310762;22;20155;-82
2023/11/14 12:38:34;;;;;;;1.63;1.33;;;;;;;;;;6306425;22;20547;-82
2023/11/14 12:41:24;;;;;;;3.53;1.80;;;;;;;;;;6306786;22;20219;-82
2023/11/14 12:43:53;;;;;;;1.63;1.20;;;;;;;;;;6307008;22;20192;-82
2023/11/14 12:46:30;;;;;;;2.50;1.02;;;;;;;;;;6306990;22;20178;-83
2023/11/14 12:49:16;;;;;;;2.90;1.55;;;;;;;;;;6307557;22;20160;-83
2023/11/14 12:51:47;;;;;;;3.80;1.40;;;;;;;;;;6307478;22;20152;-82
2023/11/14 12:54:15;;;;;;;3.28;1.65;;;;;;;;;;6307646;22;20187;-82
2023/11/14 12:56:43;;;;;;;2.63;1.10;;;;;;;;;;6307677;22;20594;-83
2023/11/14 12:59:11;;;;;;;2.95;1.50;;;;;;;;;;6307805;22;20563;-82
2023/11/14 13:01:40;;;;;;;3.80;1.20;;;;;;;;;;6307557;22;20172;-82
2023/11/14 13:04:08;;;;;;;3.67;1.60;;;;;;;;;;6307193;22;20247;-82
2023/11/14 13:06:39;;;;;;;2.38;1.40;;;;;;;;;;6307540;22;20178;-82
2023/11/14 13:09:08;;;;;;;2.03;0.90;;;;;;;;;;6307164;22;20559;-82
2023/11/14 13:11:36;;;;;;;2.50;1.52;;;;;;;;;;6307794;22;20207;-82
2023/11/14 13:14:04;;;;;;;2.22;1.50;;;;;;;;;;6307606;22;20183;-82
2023/11/14 13:16:32;;;;;;;4.22;1.52;;;;;;;;;;6307553;22;20535;-82
2023/11/14 13:19:00;;;;;;;3.20;1.48;;;;;;;;;;6307458;22;20624;-83
2023/11/14 13:21:28;;;;;;;2.95;1.20;;;;;;;;;;6308027;22;20256;-83
2023/11/14 13:23:57;;;;;;;2.95;1.58;;;;;;;;;;6309388;22;20186;-83
2023/11/14 13:26:24;;;;;;;3.13;1.30;;;;;;;;;;6308492;22;20247;-84
2023/11/14 13:28:52;;;;;;;3.40;1.48;;;;;;;;;;6307812;22;20254;-83
2023/11/14 13:31:20;;;;;;;2.55;1.30;;;;;;;;;;6308102;22;20732;-82
2023/11/14 13:33:47;;;;;;;1.30;1.20;;;;;;;;;;6308045;22;20208;-82
2023/11/14 13:36:16;;;;;;;2.42;1.35;;;;;;;;;;6308660;22;20176;-81
2023/11/14 13:38:44;;;;;;;3.47;1.20;;;;;;;;;;6309020;22;20168;-82
2023/11/14 13:41:14;;;;;;;0.95;0.90;;;;;;;;;;6309113;22;20257;-82
2023/11/14 13:43:41;;;;;;;2.80;1.75;;;;;;;;;;6309182;22;20172;-82
2023/11/14 13:46:10;;;;;;;1.80;1.00;;;;;;;;;;6308739;22;20203;-82
2023/11/14 13:48:37;;;;;;;2.22;1.30;;;;;;;;;;6308887;22;20520;-82
2023/11/14 13:51:06;;;;;;;2.38;1.10;;;;;;;;;;6309520;22;20206;-83
2023/11/14 13:53:34;;;;;;;3.90;1.20;;;;;;;;;;6310366;22;20218;-82
2023/11/14 13:56:03;;;;;;;0.95;0.90;;;;;;;;;;6310292;22;20254;-82
2023/11/14 13:58:35;;;;;;;2.95;1.00;;;;;;;;;;6312223;22;20567;-83
2023/11/14 14:01:05;;;;;;;2.20;1.25;;;;;;;;;;6311346;22;20199;-82
2023/11/14 14:03:33;;;;;;;1.80;1.10;;;;;;;;;;6311459;22;20176;-82
2023/11/14 14:06:01;;;;;;;2.80;1.40;;;;;;;;;;6312121;22;20175;-83
2023/11/14 14:08:28;;;;;;;1.02;0.90;;;;;;;;;;6310468;22;20180;-84
2023/11/14 14:10:56;;;;;;;2.25;1.77;;;;;;;;;;6309900;22;20741;-84
2023/11/14 14:13:23;;;;;;;2.78;1.30;;;;;;;;;;6311222;22;20199;-83
2023/11/14 14:15:52;;;;;;;2.15;1.08;;;;;;;;;;6311706;22;20644;-83
2023/11/14 14:18:22;;;;;;;1.00;1.00;;;;;;;;;;6311429;22;20678;-82
2023/11/14 14:20:51;;;;;;;1.52;1.02;;;;;;;;;;6312894;22;20192;-82
2023/11/14 14:23:22;;;;;;;2.63;1.20;;;;;;;;;;6311702;22;20190;-81
2023/11/14 14:25:50;;;;;;;0.80;0.80;;;;;;;;;;6311906;22;20172;-82
2023/11/14 14:28:20;;;;;;;2.28;1.30;;;;;;;;;;6312369;22;20555;-84
2023/11/14 14:30:49;;;;;;;1.30;0.80;;;;;;;;;;6310823;22;20271;-83
2023/11/14 14:33:18;;;;;;;2.42;1.20;;;;;;;;;;6311328;22;20176;-82
2023/11/14 14:35:46;;;;;;;1.30;1.15;;;;;;;;;;6311643;22;20171;-82
2023/11/14 14:38:14;;;;;;;1.55;0.90;;;;;;;;;;6312342;22;20191;-82
2023/11/14 14:40:41;;;;;;;1.80;1.10;;;;;;;;;;6311109;22;20271;-81
2023/11/14 14:43:09;;;;;;;1.83;1.42;;;;;;;;;;6312121;22;20176;-82
2023/11/14 14:45:36;;;;;;;0.90;0.90;;;;;;;;;;6311671;22;20628;-82
2023/11/14 14:48:04;;;;;;;2.92;1.17;;;;;;;;;;6310654;22;20175;-82
2023/11/14 14:50:33;;;;;;;1.02;1.00;;;;;;;;;;6311077;22;20242;-82
2023/11/14 14:53:01;;;;;;;1.58;1.02;;;;;;;;;;6310794;22;20211;-84
2023/11/14 14:55:28;;;;;;;1.38;1.00;;;;;;;;;;6310617;22;20596;-83